createdAt,value
2022-07-26T00:00:46.794Z,100951.47
2022-07-26T00:03:13.417Z,100956.91
2022-07-26T00:05:39.810Z,100946.50
2022-07-26T00:08:13.064Z,100947.28
2022-07-26T00:10:41.111Z,100953.50
2022-07-26T00:13:07.648Z,100942.09
2022-07-26T00:15:34.327Z,100944.00
2022-07-26T00:18:00.824Z,100940.38
2022-07-26T00:20:27.478Z,100926.88
2022-07-26T00:22:54.110Z,100927.84
2022-07-26T00:25:20.609Z,100927.53
2022-07-26T00:27:46.994Z,100925.84
2022-07-26T00:30:14.251Z,100935.13
2022-07-26T00:32:40.925Z,100937.09
2022-07-26T00:35:07.799Z,100939.97
2022-07-26T00:37:34.280Z,100936.69
2022-07-26T00:40:00.671Z,100939.84
2022-07-26T00:42:27.103Z,100950.56
2022-07-26T00:44:53.462Z,100933.97
2022-07-26T00:47:19.835Z,100942.28
2022-07-26T00:49:46.222Z,100944.75
2022-07-26T00:52:13.208Z,100939.97
2022-07-26T00:54:40.341Z,100948.81
2022-07-26T00:57:07.118Z,100942.00
2022-07-26T00:59:33.712Z,100944.16
2022-07-26T01:02:00.257Z,100944.75
2022-07-26T01:04:27.378Z,100948.75
2022-07-26T01:06:54.342Z,100942.56
2022-07-26T01:09:20.721Z,100946.44
2022-07-26T01:11:47.132Z,100943.22
2022-07-26T01:14:13.617Z,100953.06
2022-07-26T01:16:40.167Z,100947.56
2022-07-26T01:19:06.642Z,100944.81
2022-07-26T01:21:33.797Z,100943.97
2022-07-26T01:24:00.292Z,100940.63
2022-07-26T01:26:26.646Z,100944.66
2022-07-26T01:28:53.065Z,100943.28
2022-07-26T01:31:19.588Z,100939.53
2022-07-26T01:33:46.082Z,100944.19
2022-07-26T01:36:12.778Z,100940.19
2022-07-26T01:38:39.964Z,100947.06
2022-07-26T01:41:06.424Z,100945.56
2022-07-26T01:43:32.887Z,100948.66
2022-07-26T01:45:59.341Z,100947.28
2022-07-26T01:48:25.821Z,100947.34
2022-07-26T01:50:52.166Z,100949.97
2022-07-26T01:53:18.526Z,100946.34
2022-07-26T01:55:44.893Z,100936.63
2022-07-26T01:58:11.243Z,100950.38
2022-07-26T02:00:37.604Z,100945.91
2022-07-26T02:03:04.206Z,100944.91
2022-07-26T02:05:30.742Z,100940.75
2022-07-26T02:07:57.166Z,100949.69
2022-07-26T02:10:23.605Z,100949.59
2022-07-26T02:12:50.185Z,100947.09
2022-07-26T02:15:16.754Z,100954.84
2022-07-26T02:17:43.502Z,100953.13
2022-07-26T02:20:10.024Z,100953.31
2022-07-26T02:22:36.385Z,100960.88
2022-07-26T02:25:05.252Z,100965.00
2022-07-26T02:27:32.170Z,100964.88
2022-07-26T02:29:58.519Z,100967.75
2022-07-26T02:32:24.888Z,100960.03
2022-07-26T02:34:51.265Z,100972.63
2022-07-26T02:37:17.651Z,100977.03
2022-07-26T02:39:44.073Z,100966.38
2022-07-26T02:42:10.428Z,100963.00
2022-07-26T02:44:36.908Z,100968.34
2022-07-26T02:47:03.301Z,100974.19
2022-07-26T02:49:29.682Z,100972.25
2022-07-26T02:51:56.009Z,100975.28
2022-07-26T02:54:22.626Z,100971.03
2022-07-26T02:56:48.974Z,100968.09
2022-07-26T02:59:15.431Z,100959.00
2022-07-26T03:01:41.839Z,100954.09
2022-07-26T03:04:08.691Z,100941.41
2022-07-26T03:06:35.497Z,100943.28
2022-07-26T03:09:02.031Z,100933.56
2022-07-26T03:11:28.425Z,100932.09
2022-07-26T03:13:54.896Z,100926.50
2022-07-26T03:16:24.790Z,100921.56
2022-07-26T03:18:53.795Z,100920.66
2022-07-26T03:21:20.167Z,100906.69
2022-07-26T03:23:46.535Z,100908.03
2022-07-26T03:26:12.926Z,100892.56
2022-07-26T03:28:42.062Z,100888.06
2022-07-26T03:31:08.895Z,100881.38
2022-07-26T03:33:35.347Z,100870.28
2022-07-26T03:36:01.774Z,100869.72
2022-07-26T03:38:28.229Z,100869.41
2022-07-26T03:40:54.582Z,100858.38
2022-07-26T03:43:23.288Z,100856.44
2022-07-26T03:45:50.275Z,100847.91
2022-07-26T03:48:16.818Z,100831.84
2022-07-26T03:50:43.261Z,100827.72
2022-07-26T03:53:09.647Z,100813.22
2022-07-26T03:55:54.750Z,100809.31
2022-07-26T03:58:21.148Z,100794.88
2022-07-26T04:00:47.518Z,100803.28
2022-07-26T04:03:13.949Z,100804.34
2022-07-26T04:05:40.413Z,100793.38
2022-07-26T04:08:14.954Z,100794.16
2022-07-26T04:10:44.674Z,100794.41
2022-07-26T04:13:11.036Z,100786.34
2022-07-26T04:15:37.406Z,100781.94
2022-07-26T04:18:03.839Z,100782.94
2022-07-26T04:20:30.281Z,100782.53
2022-07-26T04:22:56.660Z,100780.41
2022-07-26T04:25:23.057Z,100780.50
2022-07-26T04:27:49.428Z,100785.28
2022-07-26T04:30:16.009Z,100768.41
2022-07-26T04:32:43.059Z,100780.31
2022-07-26T04:35:10.609Z,100773.91
2022-07-26T04:37:43.975Z,100781.84
2022-07-26T04:40:11.380Z,100775.41
2022-07-26T04:42:39.355Z,100779.72
2022-07-26T04:45:08.491Z,100780.53
2022-07-26T04:47:35.484Z,100783.91
2022-07-26T04:50:02.980Z,100788.41
2022-07-26T04:52:29.335Z,100791.47
2022-07-26T04:54:55.704Z,100796.50
2022-07-26T04:57:22.074Z,100796.13
2022-07-26T05:00:03.456Z,100802.22
2022-07-26T05:02:35.009Z,100807.59
2022-07-26T05:05:01.413Z,100822.75
2022-07-26T05:07:27.763Z,100822.41
2022-07-26T05:09:54.167Z,100827.78
2022-07-26T05:12:20.546Z,100841.94
2022-07-26T05:14:46.886Z,100847.78
2022-07-26T05:17:13.534Z,100843.25
2022-07-26T05:19:48.933Z,100862.31
2022-07-26T05:22:15.667Z,100864.50
2022-07-26T05:24:42.157Z,100872.31
2022-07-26T05:27:08.864Z,100875.16
2022-07-26T05:29:35.334Z,100879.28
2022-07-26T05:32:01.670Z,100902.34
2022-07-26T05:34:28.055Z,100905.41
2022-07-26T05:36:54.404Z,100910.06
2022-07-26T05:39:20.850Z,100915.78
2022-07-26T05:41:47.238Z,100925.25
2022-07-26T05:44:13.650Z,100928.44
2022-07-26T05:46:39.995Z,100936.38
2022-07-26T05:49:07.070Z,100955.72
2022-07-26T05:51:33.927Z,100953.44
2022-07-26T05:54:00.415Z,100954.47
2022-07-26T05:56:26.778Z,100964.00
2022-07-26T05:58:53.155Z,100977.63
2022-07-26T06:01:19.729Z,100983.19
2022-07-26T06:03:46.310Z,100994.47
2022-07-26T06:06:12.737Z,100998.50
2022-07-26T06:08:39.168Z,101005.22
2022-07-26T06:11:05.728Z,101006.63
2022-07-26T06:13:32.147Z,101019.47
2022-07-26T06:15:58.655Z,101022.91
2022-07-26T06:18:25.042Z,101018.63
2022-07-26T06:20:51.490Z,101024.00
2022-07-26T06:23:17.999Z,101038.88
2022-07-26T06:26:00.302Z,101035.94
2022-07-26T06:28:26.682Z,101051.25
2022-07-26T06:30:53.035Z,101041.88
2022-07-26T06:33:19.414Z,101051.75
2022-07-26T06:35:45.776Z,101051.22
2022-07-26T06:38:12.194Z,101050.91
2022-07-26T06:40:38.641Z,101053.75
2022-07-26T06:43:05.178Z,101056.97
2022-07-26T06:45:31.952Z,101076.28
2022-07-26T06:47:58.502Z,101057.56
2022-07-26T06:50:25.669Z,101057.63
2022-07-26T06:52:52.574Z,101062.53
2022-07-26T06:55:19.203Z,101065.00
2022-07-26T06:57:49.921Z,101076.59
2022-07-26T07:00:17.387Z,101098.19
2022-07-26T07:02:43.800Z,101108.72
2022-07-26T07:05:11.924Z,101109.53
2022-07-26T07:07:38.869Z,101118.03
2022-07-26T07:10:05.870Z,101129.66
2022-07-26T07:12:32.645Z,101129.25
2022-07-26T07:14:59.033Z,101143.78
2022-07-26T07:17:25.599Z,101147.19
2022-07-26T07:19:51.954Z,101146.63
2022-07-26T07:22:18.314Z,101141.50
2022-07-26T07:24:44.724Z,101145.75
2022-07-26T07:27:13.029Z,101144.50
2022-07-26T07:29:43.331Z,101144.22
2022-07-26T07:32:18.354Z,101141.28
2022-07-26T07:34:45.854Z,101134.94
2022-07-26T07:37:14.322Z,101143.66
2022-07-26T07:39:40.718Z,101136.09
2022-07-26T07:42:07.819Z,101130.75
2022-07-26T07:44:34.185Z,101137.28
2022-07-26T07:47:00.608Z,101146.53
2022-07-26T07:49:27.115Z,101130.56
2022-07-26T07:53:33.188Z,101120.63
2022-07-26T07:56:00.136Z,101140.19
2022-07-26T07:58:28.038Z,101135.19
2022-07-26T08:00:55.291Z,101158.28
2022-07-26T08:03:21.852Z,101139.00
2022-07-26T08:05:49.576Z,101127.63
2022-07-26T08:08:16.961Z,101126.50
2022-07-26T08:10:51.476Z,101123.09
2022-07-26T08:13:21.460Z,101122.16
2022-07-26T08:15:52.848Z,101133.59
2022-07-26T08:18:22.344Z,101124.31
2022-07-26T08:20:49.921Z,101135.75
2022-07-26T08:23:16.438Z,101141.66
2022-07-26T08:25:55.625Z,101163.16
2022-07-26T08:28:45.250Z,101175.53
2022-07-26T08:31:09.687Z,101197.03
2022-07-26T08:33:36.339Z,101186.13
2022-07-26T08:36:07.405Z,101194.63
2022-07-26T08:38:33.919Z,101199.28
2022-07-26T08:41:00.448Z,101193.44
2022-07-26T08:43:26.987Z,101199.38
2022-07-26T08:46:00.817Z,101198.16
2022-07-26T08:48:27.406Z,101202.78
2022-07-26T08:50:55.749Z,101192.81
2022-07-26T08:53:23.144Z,101215.72
2022-07-26T08:56:06.352Z,101210.69
2022-07-26T08:58:36.396Z,101220.16
2022-07-26T09:01:12.847Z,101226.03
2022-07-26T09:03:40.398Z,101205.59
2022-07-26T09:06:26.298Z,101218.53
2022-07-26T09:09:10.872Z,101218.56
2022-07-26T09:11:37.822Z,101209.16
2022-07-26T09:14:05.990Z,101203.72
2022-07-26T09:16:37.550Z,101208.13
2022-07-26T09:19:22.376Z,101227.44
2022-07-26T09:21:50.250Z,101250.56
2022-07-26T09:24:42.962Z,101236.66
2022-07-26T09:27:12.424Z,101236.50
2022-07-26T09:29:53.363Z,101231.78
2022-07-26T09:32:29.543Z,101227.75
2022-07-26T09:35:44.149Z,101228.38
2022-07-26T09:37:57.072Z,101251.53
2022-07-26T09:40:30.825Z,101261.34
2022-07-26T09:42:58.575Z,101276.72
2022-07-26T09:45:28.071Z,101291.03
2022-07-26T09:47:55.076Z,101283.47
2022-07-26T09:50:24.526Z,101288.28
2022-07-26T09:53:22.725Z,101290.34
2022-07-26T09:55:49.140Z,101278.97
2022-07-26T09:58:16.773Z,101279.81
2022-07-26T10:00:44.042Z,101287.81
2022-07-26T10:03:11.169Z,101289.81
2022-07-26T10:05:37.882Z,101284.88
2022-07-26T10:08:05.052Z,101284.03
2022-07-26T10:10:40.045Z,101295.69
2022-07-26T10:13:08.498Z,101318.84
2022-07-26T10:15:36.612Z,101320.78
2022-07-26T10:18:05.188Z,101341.38
2022-07-26T10:20:43.110Z,101359.91
2022-07-26T10:23:36.188Z,101359.88
2022-07-26T10:26:05.397Z,101350.44
2022-07-26T10:28:33.759Z,101347.09
2022-07-26T10:31:19.432Z,101353.91
2022-07-26T10:33:49.580Z,101333.81
2022-07-26T10:36:28.743Z,101315.94
2022-07-26T10:39:02.257Z,101299.53
2022-07-26T10:41:34.884Z,101308.06
2022-07-26T10:44:22.663Z,101335.56
2022-07-26T10:47:08.873Z,101342.81
2022-07-26T10:49:58.796Z,101361.31
2022-07-26T10:52:31.105Z,101341.69
2022-07-26T10:54:58.022Z,101314.09
2022-07-26T10:57:25.964Z,101336.59
2022-07-26T10:59:56.206Z,101335.22
2022-07-26T11:02:27.852Z,101344.03
2022-07-26T11:05:15.629Z,101352.69
2022-07-26T11:07:52.719Z,101340.78
2022-07-26T11:10:41.913Z,101310.91
2022-07-26T11:13:19.792Z,101243.66
2022-07-26T11:15:54.429Z,101232.66
2022-07-26T11:18:26.188Z,101226.84
2022-07-26T11:20:55.955Z,101205.91
2022-07-26T11:23:34.216Z,101250.25
2022-07-26T11:26:08.171Z,101263.69
2022-07-26T11:28:45.026Z,101230.25
2022-07-26T11:31:13.068Z,101236.69
2022-07-26T11:33:45.204Z,101222.75
2022-07-26T11:36:12.685Z,101258.22
2022-07-26T11:38:52.172Z,101261.16
2022-07-26T11:41:34.897Z,101250.22
2022-07-26T11:44:02.673Z,101258.25
2022-07-26T11:46:35.832Z,101209.53
2022-07-26T11:49:03.240Z,101177.69
2022-07-26T11:51:29.835Z,101150.34
2022-07-26T11:53:59.725Z,101143.31
2022-07-26T11:56:28.814Z,101171.97
2022-07-26T11:58:56.961Z,101246.44
2022-07-26T12:01:24.836Z,101280.69
2022-07-26T12:03:53.113Z,101317.84
2022-07-26T12:06:20.978Z,101298.44
2022-07-26T12:08:52.713Z,101176.81
2022-07-26T12:11:25.597Z,101152.19
2022-07-26T12:14:03.416Z,101174.03
2022-07-26T12:16:54.367Z,101228.09
2022-07-26T12:19:20.756Z,101186.38
2022-07-26T12:21:51.794Z,101096.78
2022-07-26T12:24:40.230Z,101158.84
2022-07-26T12:27:10.362Z,101221.97
2022-07-26T12:29:38.758Z,101157.56
2022-07-26T12:32:12.787Z,101168.41
2022-07-26T12:34:40.950Z,101225.75
2022-07-26T12:37:12.726Z,101114.28
2022-07-26T12:39:40.961Z,101152.81
2022-07-26T12:42:23.849Z,101193.50
2022-07-26T12:45:00.322Z,101253.69
2022-07-26T12:47:30.173Z,101327.88
2022-07-26T12:49:56.646Z,101328.75
2022-07-26T12:52:24.087Z,101300.16
2022-07-26T12:54:52.702Z,101224.00
2022-07-26T12:57:20.159Z,101226.00
2022-07-26T12:59:48.380Z,101277.06
2022-07-26T13:02:18.891Z,101317.72
2022-07-26T13:04:45.950Z,101297.44
2022-07-26T13:07:13.311Z,101290.97
2022-07-26T13:09:40.237Z,101230.84
2022-07-26T13:12:07.480Z,101209.53
2022-07-26T13:14:34.985Z,101085.97
2022-07-26T13:17:02.387Z,101095.00
2022-07-26T13:19:29.472Z,101120.13
2022-07-26T13:21:57.485Z,101145.53
2022-07-26T13:24:25.654Z,101109.28
2022-07-26T13:26:54.478Z,101072.53
2022-07-26T13:29:22.017Z,101070.19
2022-07-26T13:31:50.997Z,101239.78
2022-07-26T13:34:18.834Z,101295.34
2022-07-26T13:36:46.029Z,101354.59
2022-07-26T13:39:12.640Z,101394.81
2022-07-26T13:41:39.261Z,101310.84
2022-07-26T13:44:05.826Z,101229.69
2022-07-26T13:46:33.677Z,101156.69
2022-07-26T13:49:02.233Z,101097.19
2022-07-26T13:51:50.084Z,101099.25
2022-07-26T13:54:17.986Z,101103.31
2022-07-26T13:56:45.549Z,101186.47
2022-07-26T13:59:12.975Z,101264.94
2022-07-26T14:01:43.538Z,101326.53
2022-07-26T14:04:13.366Z,101338.78
2022-07-26T14:06:40.950Z,101306.84
2022-07-26T14:09:11.003Z,101261.19
2022-07-26T14:11:38.664Z,101328.69
2022-07-26T14:14:05.832Z,101352.09
2022-07-26T14:16:33.227Z,101303.22
2022-07-26T14:19:00.589Z,101204.44
2022-07-26T14:21:28.679Z,101156.19
2022-07-26T14:24:05.274Z,101283.06
2022-07-26T14:26:32.066Z,101399.94
2022-07-26T14:28:58.589Z,101445.41
2022-07-26T14:31:25.386Z,101503.28
2022-07-26T14:33:52.180Z,101484.50
2022-07-26T14:36:18.782Z,101483.91
2022-07-26T14:38:45.281Z,101458.03
2022-07-26T14:41:11.988Z,101469.47
2022-07-26T14:43:38.932Z,101473.03
2022-07-26T14:46:05.689Z,101425.16
2022-07-26T14:48:53.466Z,101391.31
2022-07-26T14:51:18.620Z,101452.13
2022-07-26T14:53:45.296Z,101413.56
2022-07-26T14:56:11.939Z,101291.19
2022-07-26T14:58:38.862Z,101276.16
2022-07-26T15:01:05.435Z,101392.66
2022-07-26T15:03:33.843Z,101493.19
2022-07-26T15:06:00.396Z,101498.75
2022-07-26T15:08:26.955Z,101535.22
2022-07-26T15:10:53.604Z,101544.72
2022-07-26T15:13:21.123Z,101533.44
2022-07-26T15:15:50.802Z,101526.69
2022-07-26T15:18:18.278Z,101550.47
2022-07-26T15:20:48.049Z,101536.28
2022-07-26T15:23:15.537Z,101552.81
2022-07-26T15:25:45.233Z,101566.34
2022-07-26T15:28:11.696Z,101564.34
2022-07-26T15:30:44.134Z,101576.31
2022-07-26T15:33:18.125Z,101579.72
2022-07-26T15:35:46.624Z,101597.91
2022-07-26T15:38:13.187Z,101590.56
2022-07-26T15:40:39.917Z,101576.69
2022-07-26T15:43:06.421Z,101491.88
2022-07-26T15:45:37.814Z,101449.81
2022-07-26T15:48:14.893Z,101403.16
2022-07-26T15:50:48.072Z,101474.53
2022-07-26T15:53:16.538Z,101537.69
2022-07-26T15:55:43.057Z,101600.00
2022-07-26T15:58:09.596Z,101615.97
2022-07-26T16:00:37.704Z,101606.88
2022-07-26T16:03:04.398Z,101606.59
2022-07-26T16:05:31.306Z,101574.16
2022-07-26T16:08:10.883Z,101521.09
2022-07-26T16:10:37.558Z,101401.81
2022-07-26T16:13:06.752Z,101365.56
2022-07-26T16:15:33.437Z,101386.56
2022-07-26T16:18:05.825Z,101459.22
2022-07-26T16:20:34.072Z,101334.84
2022-07-26T16:23:00.636Z,101261.75
2022-07-26T16:25:27.241Z,101214.50
2022-07-26T16:27:54.120Z,101230.28
2022-07-26T16:30:20.948Z,101184.47
2022-07-26T16:32:47.487Z,101298.53
2022-07-26T16:35:13.988Z,101396.34
2022-07-26T16:37:42.645Z,101444.63
2022-07-26T16:40:09.921Z,101460.91
2022-07-26T16:42:36.498Z,101457.19
2022-07-26T16:45:03.650Z,101364.16
2022-07-26T16:47:30.895Z,101289.09
2022-07-26T16:49:57.415Z,101288.72
2022-07-26T16:52:23.915Z,101292.03
2022-07-26T16:54:50.428Z,101273.53
2022-07-26T16:57:16.940Z,101372.94
2022-07-26T16:59:43.728Z,101401.44
2022-07-26T17:02:10.240Z,101434.53
2022-07-26T17:04:36.910Z,101470.72
2022-07-26T17:07:26.323Z,101508.78
2022-07-26T17:09:50.305Z,101526.13
2022-07-26T17:12:16.951Z,101540.06
2022-07-26T17:14:43.564Z,101571.59
2022-07-26T17:17:10.128Z,101593.88
2022-07-26T17:19:36.644Z,101605.09
2022-07-26T17:22:03.735Z,101612.13
2022-07-26T17:24:32.915Z,101600.34
2022-07-26T17:27:00.953Z,101606.22
2022-07-26T17:29:27.611Z,101622.28
2022-07-26T17:31:55.065Z,101644.72
2022-07-26T17:34:21.800Z,101635.09
2022-07-26T17:36:57.496Z,101643.38
2022-07-26T17:39:34.119Z,101628.63
2022-07-26T17:42:15.011Z,101619.16
2022-07-26T17:44:42.453Z,101616.09
2022-07-26T17:47:28.121Z,101580.16
2022-07-26T17:50:26.278Z,101550.03
2022-07-26T17:52:49.781Z,101595.09
2022-07-26T17:55:18.340Z,101597.00
2022-07-26T17:57:45.919Z,101592.63
2022-07-26T18:00:13.573Z,101597.00
2022-07-26T18:02:40.330Z,101600.09
2022-07-26T18:05:07.138Z,101628.56
2022-07-26T18:07:33.675Z,101622.03
2022-07-26T18:10:00.855Z,101635.03
2022-07-26T18:12:27.499Z,101639.34
2022-07-26T18:14:54.194Z,101644.53
2022-07-26T18:17:20.773Z,101670.19
2022-07-26T18:19:47.339Z,101661.75
2022-07-26T18:22:13.966Z,101676.78
2022-07-26T18:24:40.675Z,101678.38
2022-07-26T18:27:10.868Z,101667.56
2022-07-26T18:29:37.395Z,101670.47
2022-07-26T18:32:04.144Z,101675.72
2022-07-26T18:34:30.663Z,101684.78
2022-07-26T18:36:57.289Z,101684.22
2022-07-26T18:39:23.812Z,101689.50
2022-07-26T18:41:50.474Z,101685.50
2022-07-26T18:44:17.148Z,101698.75
2022-07-26T18:46:43.787Z,101702.31
2022-07-26T18:49:19.755Z,101711.72
2022-07-26T18:51:48.432Z,101704.84
2022-07-26T18:54:15.619Z,101703.09
2022-07-26T18:56:42.348Z,101702.31
2022-07-26T18:59:09.910Z,101704.81
2022-07-26T19:01:36.876Z,101700.50
2022-07-26T19:04:06.817Z,101703.69
2022-07-26T19:06:34.693Z,101704.66
2022-07-26T19:09:04.572Z,101704.88
2022-07-26T19:11:32.945Z,101708.09
2022-07-26T19:14:04.353Z,101706.81
2022-07-26T19:16:31.013Z,101712.72
2022-07-26T19:18:57.785Z,101707.38
2022-07-26T19:21:24.557Z,101714.44
2022-07-26T19:23:51.051Z,101705.66
2022-07-26T19:26:17.534Z,101710.00
2022-07-26T19:28:47.258Z,101705.47
2022-07-26T19:31:13.849Z,101705.69
2022-07-26T19:33:40.722Z,101700.72
2022-07-26T19:36:07.792Z,101706.06
2022-07-26T19:38:34.530Z,101700.53
2022-07-26T19:41:01.671Z,101699.84
2022-07-26T19:43:28.864Z,101695.16
2022-07-26T19:45:55.568Z,101704.28
2022-07-26T19:48:22.104Z,101698.50
2022-07-26T19:50:48.773Z,101700.47
2022-07-26T19:53:15.302Z,101700.59
2022-07-26T19:55:42.442Z,101704.00
2022-07-26T19:58:09.293Z,101702.13
2022-07-26T20:00:35.997Z,101708.13
2022-07-26T20:03:02.570Z,101699.84
2022-07-26T20:05:29.117Z,101695.25
2022-07-26T20:07:55.640Z,101692.41
2022-07-26T20:10:22.203Z,101691.06
2022-07-26T20:12:48.692Z,101688.59
2022-07-26T20:15:15.199Z,101689.44
2022-07-26T20:17:41.863Z,101688.16
2022-07-26T20:20:09.488Z,101683.59
2022-07-26T20:22:36.591Z,101691.50
2022-07-26T20:25:03.385Z,101684.09
2022-07-26T20:27:30.057Z,101687.25
2022-07-26T20:30:00.900Z,101681.03
2022-07-26T20:32:27.929Z,101689.25
2022-07-26T20:34:54.562Z,101687.28
2022-07-26T20:37:21.087Z,101679.81
2022-07-26T20:39:47.662Z,101681.44
2022-07-26T20:42:21.410Z,101681.94
2022-07-26T20:44:48.481Z,101693.72
2022-07-26T20:47:15.387Z,101677.53
2022-07-26T20:49:41.941Z,101686.78
2022-07-26T20:52:08.480Z,101692.22
2022-07-26T20:54:35.074Z,101685.34
2022-07-26T20:57:04.547Z,101670.66
2022-07-26T20:59:32.281Z,101680.56
2022-07-26T21:01:59.056Z,101685.31
2022-07-26T21:04:25.825Z,101678.84
2022-07-26T21:06:52.329Z,101678.38
2022-07-26T21:09:19.775Z,101683.19
2022-07-26T21:11:46.376Z,101681.75
2022-07-26T21:14:12.928Z,101682.13
2022-07-26T21:16:39.496Z,101678.13
2022-07-26T21:19:06.125Z,101687.16
2022-07-26T21:21:34.171Z,101678.50
2022-07-26T21:24:00.737Z,101685.56
2022-07-26T21:26:29.317Z,101683.25
2022-07-26T21:28:55.800Z,101678.88
2022-07-26T21:31:22.367Z,101668.97
2022-07-26T21:33:48.988Z,101671.16
2022-07-26T21:36:15.493Z,101671.53
2022-07-26T21:38:42.721Z,101669.59
2022-07-26T21:41:09.357Z,101676.31
2022-07-26T21:43:39.840Z,101657.75
2022-07-26T21:46:11.936Z,101671.59
2022-07-26T21:48:39.587Z,101665.84
2022-07-26T21:51:06.153Z,101668.47
2022-07-26T21:53:32.642Z,101655.25
2022-07-26T21:55:59.155Z,101660.38
2022-07-26T21:58:27.975Z,101671.41
2022-07-26T22:01:03.409Z,101662.66
2022-07-26T22:03:36.343Z,101662.75
2022-07-26T22:06:03.341Z,101666.19
2022-07-26T22:08:29.944Z,101655.81
2022-07-26T22:10:56.498Z,101664.16
2022-07-26T22:13:23.848Z,101667.03
2022-07-26T22:15:50.796Z,101664.53
2022-07-26T22:18:20.159Z,101671.41
2022-07-26T22:20:49.954Z,101661.59
2022-07-26T22:23:18.081Z,101660.78
2022-07-26T22:25:45.064Z,101661.34
2022-07-26T22:28:17.872Z,101660.81
2022-07-26T22:30:45.465Z,101659.59
2022-07-26T22:33:11.984Z,101656.66
2022-07-26T22:35:38.784Z,101656.34
2022-07-26T22:38:09.139Z,101656.66
2022-07-26T22:40:37.107Z,101655.59
2022-07-26T22:43:04.052Z,101659.72
2022-07-26T22:45:31.074Z,101656.84
2022-07-26T22:47:58.204Z,101645.81
2022-07-26T22:50:25.316Z,101645.25
2022-07-26T22:52:52.580Z,101639.94
2022-07-26T22:55:19.729Z,101635.59
2022-07-26T22:57:46.374Z,101636.38
2022-07-26T23:00:16.488Z,101635.78
2022-07-26T23:02:43.175Z,101633.81
2022-07-26T23:05:10.462Z,101632.47
2022-07-26T23:07:37.585Z,101638.31
2022-07-26T23:10:06.064Z,101631.50
2022-07-26T23:12:32.901Z,101631.44
2022-07-26T23:14:59.804Z,101629.81
2022-07-26T23:17:26.279Z,101641.69
2022-07-26T23:19:52.788Z,101630.16
2022-07-26T23:22:19.364Z,101635.13
2022-07-26T23:24:45.817Z,101637.78
2022-07-26T23:27:15.506Z,101631.44
2022-07-26T23:29:46.153Z,101629.44
2022-07-26T23:32:14.794Z,101631.22
2022-07-26T23:34:41.253Z,101628.75
2022-07-26T23:37:07.715Z,101627.72
2022-07-26T23:39:34.385Z,101633.59
2022-07-26T23:42:02.873Z,101631.97
2022-07-26T23:44:33.837Z,101630.97
2022-07-26T23:47:00.471Z,101631.13
2022-07-26T23:49:27.067Z,101627.78
2022-07-26T23:51:53.918Z,101624.91
2022-07-26T23:54:20.524Z,101622.00
2022-07-26T23:56:47.535Z,101632.25
2022-07-26T23:59:14.441Z,101619.16
